D/T METAR WX W/DIR W/SPE G/SPE TEMP DEWP
16/01/19 03:20 EGSS 160320Z AUTO 23011KT 9999 OVC012 08/06 Q1009 SW (230°) 12.7mph 8°C 6°C
16/01/19 02:50 EGSS 160250Z AUTO 22011KT 9999 BKN014 OVC034 08/06 Q1010 SW (220°) 12.7mph 8°C 6°C
16/01/19 02:20 EGSS 160220Z AUTO 22011KT 9999 SCT015 BKN032 07/06 Q1010 SW (220°) 12.7mph 7°C 6°C
16/01/19 01:20 EGSS 160120Z AUTO 23012KT 9999 FEW013 BKN027 07/06 Q1011 SW (230°) 13.8mph 7°C 6°C
16/01/19 00:50 EGSS 160050Z AUTO 23013KT 9999 OVC026 07/05 Q1011 SW (230°) 15.0mph 7°C 5°C
16/01/19 00:20 EGSS 160020Z AUTO 22014KT 9999 BKN026 07/05 Q1012 SW (220°) 16.1mph 7°C 5°C
15/01/19 23:50 EGSS 152350Z AUTO 22013KT 9999 OVC025 07/05 Q1012 SW (220°) 15.0mph 7°C 5°C
15/01/19 23:20 EGSS 152320Z 22010KT 9999 BKN021 OVC027 08/05 Q1013 SW (220°) 11.5mph 8°C 5°C
15/01/19 22:50 EGSS 152250Z AUTO 23012KT 9999 OVC021 08/05 Q1013 SW (230°) 13.8mph 8°C 5°C
15/01/19 22:20 EGSS 152220Z AUTO 23012KT 9999 OVC021 08/05 Q1013 SW (230°) 13.8mph 8°C 5°C
15/01/19 21:50 EGSS 152150Z AUTO 23010KT 9999 OVC021 08/05 Q1014 SW (230°) 11.5mph 8°C 5°C
15/01/19 21:20 EGSS 152120Z AUTO 23009KT 9999 OVC023 08/06 Q1014 SW (230°) 10.4mph 8°C 6°C
15/01/19 20:50 EGSS 152050Z AUTO 23011KT 9999 OVC023 08/06 Q1014 SW (230°) 12.7mph 8°C 6°C
15/01/19 20:20 EGSS 152020Z AUTO 23011KT 9999 SCT015 OVC024 07/06 Q1014 SW (230°) 12.7mph 7°C 6°C
15/01/19 19:50 EGSS 151950Z AUTO 23010KT 9999 BKN012 OVC024 07/06 Q1015 SW (230°) 11.5mph 7°C 6°C
15/01/19 19:20 EGSS 151920Z AUTO 23010KT 9999 BKN010 OVC025 07/06 Q1015 SW (230°) 11.5mph 7°C 6°C
15/01/19 18:50 EGSS 151850Z AUTO 23009KT 9999 BKN007 OVC020 07/07 Q1015 RERA REDZ SW (230°) 10.4mph 7°C 7°C
15/01/19 18:20 EGSS 151820Z AUTO 23010KT 3200 RA SCT006 BKN009 OVC024 07/07 Q1015 RA SW (230°) 11.5mph 7°C 7°C
15/01/19 17:50 EGSS 151750Z AUTO 23010KT 9999 FEW012 BKN026 BKN032 08/06 Q1016 SW (230°) 11.5mph 8°C 6°C
15/01/19 17:20 EGSS 151720Z AUTO 23008KT 9999 BKN011 07/06 Q1016 SW (230°) 9.2mph 7°C 6°C
15/01/19 16:50 EGSS 151650Z AUTO 23010KT 9999 BKN026 08/06 Q1016 SW (230°) 11.5mph 8°C 6°C
15/01/19 16:20 EGSS 151620Z AUTO 24009KT 9999 BKN031 08/06 Q1016 WSW (240°) 10.4mph 8°C 6°C
15/01/19 15:50 EGSS 151550Z AUTO 24009KT 9999 BKN035 08/06 Q1016 WSW (240°) 10.4mph 8°C 6°C
15/01/19 15:20 EGSS 151520Z 24009KT 9999 SCT013 BKN015 08/06 Q1016 WSW (240°) 10.4mph 8°C 6°C
15/01/19 14:50 EGSS 151450Z 24011KT 9999 BKN012 BKN018 OVC037 08/06 Q1017 WSW (240°) 12.7mph 8°C 6°C
15/01/19 14:20 EGSS 151420Z AUTO 24009KT 9999 BKN016 BKN025 OVC032 08/06 Q1017 WSW (240°) 10.4mph 8°C 6°C
15/01/19 13:50 EGSS 151350Z AUTO 24010KT 9999 SCT013 OVC035 08/06 Q1017 WSW (240°) 11.5mph 8°C 6°C
15/01/19 13:20 EGSS 151320Z AUTO 25011KT 9999 BKN012 OVC031 08/06 Q1017 WSW (250°) 12.7mph 8°C 6°C
15/01/19 12:50 EGSS 151250Z AUTO 24010KT 9999 BKN013 OVC035 08/05 Q1018 WSW (240°) 11.5mph 8°C 5°C
15/01/19 12:20 EGSS 151220Z AUTO 25011KT 9999 FEW015 OVC031 08/05 Q1018 WSW (250°) 12.7mph 8°C 5°C
15/01/19 11:50 EGSS 151150Z AUTO 25011KT 9999 OVC036 08/05 Q1018 WSW (250°) 12.7mph 8°C 5°C
15/01/19 11:20 EGSS 151120Z AUTO 25011KT 9999 OVC037 07/04 Q1019 WSW (250°) 12.7mph 7°C 4°C
15/01/19 10:50 EGSS 151050Z AUTO 24010KT 9999 OVC035 07/04 Q1019 WSW (240°) 11.5mph 7°C 4°C
15/01/19 10:20 EGSS 151020Z AUTO 24011KT 9999 OVC034 07/04 Q1019 WSW (240°) 12.7mph 7°C 4°C
15/01/19 09:50 EGSS 150950Z AUTO 24009KT 9999 OVC035 06/04 Q1019 WSW (240°) 10.4mph 6°C 4°C
15/01/19 08:50 EGSS 150850Z AUTO 23011KT 9999 OVC033 05/03 Q1019 SW (230°) 12.7mph 5°C 3°C
15/01/19 08:20 EGSS 150820Z AUTO 22009KT 9999 OVC030 05/03 Q1019 SW (220°) 10.4mph 5°C 3°C
15/01/19 07:50 EGSS 150750Z AUTO 22009KT 9999 OVC027 04/03 Q1019 SW (220°) 10.4mph 4°C 3°C
15/01/19 07:20 EGSS 150720Z AUTO 23009KT 9999 OVC028 04/02 Q1020 SW (230°) 10.4mph 4°C 2°C
15/01/19 06:50 EGSS 150650Z AUTO 24007KT 9999 BKN025 OVC030 04/02 Q1020 WSW (240°) 8.1mph 4°C 2°C
15/01/19 06:20 EGSS 150620Z AUTO 24008KT 9999 OVC028 03/02 Q1020 WSW (240°) 9.2mph 3°C 2°C
15/01/19 05:50 EGSS 150550Z AUTO 23008KT 9999 BKN030 02/01 Q1020 SW (230°) 9.2mph 2°C 1°C
15/01/19 05:20 EGSS 150520Z AUTO 23009KT 9999 NCD 02/01 Q1020 SW (230°) 10.4mph 2°C 1°C
15/01/19 04:50 EGSS 150450Z AUTO 23008KT 9999 SCT038 02/00 Q1020 SW (230°) 9.2mph 2°C 0°C
15/01/19 04:20 EGSS 150420Z AUTO 22006KT 9999 BKN034 02/01 Q1020 SW (220°) 6.9mph 2°C 1°C
15/01/19 03:50 EGSS 150350Z AUTO 22009KT 9999 FEW036 01/00 Q1020 SW (220°) 10.4mph 1°C 0°C
15/01/19 03:20 EGSS 150320Z AUTO 23007KT 9999 NCD 01/M00 Q1021 SW (230°) 8.1mph 1°C 0°C
15/01/19 02:50 EGSS 150250Z AUTO 24006KT 9999 NCD 02/01 Q1021 WSW (240°) 6.9mph 2°C 1°C
15/01/19 02:20 EGSS 150220Z AUTO 23005KT 9999 NCD 01/M00 Q1021 SW (230°) 5.8mph 1°C 0°C
15/01/19 01:50 EGSS 150150Z AUTO 25004KT 9999 NCD 02/01 Q1021 WSW (250°) 4.6mph 2°C 1°C
15/01/19 01:20 EGSS 150120Z AUTO 23005KT 9999 NCD 01/M00 Q1021 SW (230°) 5.8mph 1°C 0°C
15/01/19 00:50 EGSS 150050Z AUTO 25003KT 9999 NCD 03/01 Q1021 WSW (250°) 3.5mph 3°C 1°C
15/01/19 00:20 EGSS 150020Z AUTO 26004KT 9999 NCD 03/01 Q1021 W (260°) 4.6mph 3°C 1°C
14/01/19 23:50 EGSS 142350Z AUTO 26006KT 9999 NCD 03/02 Q1022 W (260°) 6.9mph 3°C 2°C
14/01/19 23:20 EGSS 142320Z AUTO 27004KT 9999 NCD 04/02 Q1022 W (270°) 4.6mph 4°C 2°C
14/01/19 22:50 EGSS 142250Z AUTO 27004KT 9999 NCD 04/02 Q1022 W (270°) 4.6mph 4°C 2°C
14/01/19 22:20 EGSS 142220Z AUTO 27005KT 9999 BKN042 05/02 Q1022 W (270°) 5.8mph 5°C 2°C
14/01/19 21:50 EGSS 142150Z AUTO 28004KT 9999 BKN043 05/03 Q1022 W (280°) 4.6mph 5°C 3°C
14/01/19 21:20 EGSS 142120Z AUTO 26004KT 9999 FEW049 04/02 Q1022 W (260°) 4.6mph 4°C 2°C
14/01/19 20:50 EGSS 142050Z AUTO 27004KT 9999 BKN046 05/03 Q1022 W (270°) 4.6mph 5°C 3°C
14/01/19 20:20 EGSS 142020Z AUTO 27005KT 240V300 9999 BKN049 05/03 Q1022 W (270°) 5.8mph 5°C 3°C
14/01/19 19:50 EGSS 141950Z AUTO 27005KT 9999 OVC049 06/03 Q1022 W (270°) 5.8mph 6°C 3°C
14/01/19 19:20 EGSS 141920Z AUTO 28005KT 9999 NCD 06/03 Q1022 W (280°) 5.8mph 6°C 3°C
14/01/19 18:50 EGSS 141850Z AUTO 26004KT 9999 NCD 06/03 Q1022 W (260°) 4.6mph 6°C 3°C
14/01/19 18:20 EGSS 141820Z AUTO 28003KT 9999 NCD 06/03 Q1022 W (280°) 3.5mph 6°C 3°C
14/01/19 17:50 EGSS 141750Z AUTO 29005KT 9999 OVC048 07/03 Q1022 WNW (290°) 5.8mph 7°C 3°C
14/01/19 17:20 EGSS 141720Z AUTO 29005KT 9999 FEW027 OVC045 07/03 Q1022 WNW (290°) 5.8mph 7°C 3°C
14/01/19 16:50 EGSS 141650Z AUTO 29005KT 9999 SCT039 07/03 Q1022 WNW (290°) 5.8mph 7°C 3°C
14/01/19 16:20 EGSS 141620Z AUTO 30006KT 9999 NCD 07/03 Q1022 WNW (300°) 6.9mph 7°C 3°C
14/01/19 15:50 EGSS 141550Z AUTO 30007KT 9999 FEW027 SCT035 OVC041 08/03 Q1021 WNW (300°) 8.1mph 8°C 3°C
14/01/19 15:20 EGSS 141520Z AUTO 30008KT 9999 SCT037 BKN045 08/03 Q1021 WNW (300°) 9.2mph 8°C 3°C
14/01/19 14:50 EGSS 141450Z AUTO 30005KT 9999 FEW026 BKN038 08/04 Q1020 WNW (300°) 5.8mph 8°C 4°C
14/01/19 14:20 EGSS 141420Z AUTO 31006KT 9999 FEW022 BKN039 08/04 Q1020 NW (310°) 6.9mph 8°C 4°C
14/01/19 13:50 EGSS 141350Z AUTO 31008KT 9999 FEW022 SCT028 OVC040 08/04 Q1020 NW (310°) 9.2mph 8°C 4°C
14/01/19 13:20 EGSS 141320Z AUTO 32008KT 9999 SCT021 BKN027 OVC041 08/04 Q1020 NW (320°) 9.2mph 8°C 4°C
14/01/19 12:50 EGSS 141250Z AUTO 31008KT 9999 BKN020 BKN028 BKN036 08/04 Q1020 NW (310°) 9.2mph 8°C 4°C
14/01/19 12:20 EGSS 141220Z AUTO 31007KT 9999 -RA BKN020 BKN040 OVC048 07/04 Q1020 -RA NW (310°) 8.1mph 7°C 4°C
14/01/19 11:50 EGSS 141150Z AUTO 32008KT 9999 SCT019 OVC036 07/04 Q1020 NW (320°) 9.2mph 7°C 4°C
14/01/19 11:20 EGSS 141120Z AUTO 31009KT 9999 SCT025 OVC040 07/04 Q1020 NW (310°) 10.4mph 7°C 4°C
14/01/19 10:50 EGSS 141050Z AUTO 31009KT 290V010 9999 FEW028 OVC034 07/04 Q1020 NW (310°) 10.4mph 7°C 4°C
14/01/19 10:20 EGSS 141020Z AUTO 30008KT 9999 OVC030 06/04 Q1020 WNW (300°) 9.2mph 6°C 4°C
14/01/19 09:50 EGSS 140950Z 29006KT 250V320 9999 OVC036 06/04 Q1019 WNW (290°) 6.9mph 6°C 4°C
14/01/19 09:20 EGSS 140920Z AUTO 30007KT 9999 BKN037 05/03 Q1019 WNW (300°) 8.1mph 5°C 3°C
14/01/19 08:50 EGSS 140850Z AUTO 30007KT 9999 BKN035 05/03 Q1019 WNW (300°) 8.1mph 5°C 3°C
14/01/19 08:20 EGSS 140820Z AUTO 31008KT 9999 NCD 05/03 Q1018 NW (310°) 9.2mph 5°C 3°C
14/01/19 07:50 EGSS 140750Z AUTO 31009KT 9999 NCD 06/03 Q1018 NW (310°) 10.4mph 6°C 3°C
14/01/19 07:20 EGSS 140720Z AUTO 31008KT 9999 NCD 06/03 Q1017 NW (310°) 9.2mph 6°C 3°C
14/01/19 06:50 EGSS 140650Z AUTO 30009KT 9999 NCD 06/03 Q1017 WNW (300°) 10.4mph 6°C 3°C
14/01/19 06:20 EGSS 140620Z AUTO 30009KT 9999 NCD 06/03 Q1017 WNW (300°) 10.4mph 6°C 3°C
14/01/19 05:50 EGSS 140550Z AUTO 30011KT 9999 NCD 06/03 Q1016 WNW (300°) 12.7mph 6°C 3°C
14/01/19 05:20 EGSS 140520Z AUTO 30010KT 9999 BKN043 06/03 Q1016 WNW (300°) 11.5mph 6°C 3°C
14/01/19 04:50 EGSS 140450Z AUTO 30010KT 9999 NCD 06/03 Q1016 WNW (300°) 11.5mph 6°C 3°C
14/01/19 04:20 EGSS 140420Z AUTO 29008KT 9999 NCD 06/03 Q1015 WNW (290°) 9.2mph 6°C 3°C
14/01/19 03:50 EGSS 140350Z AUTO 29009KT 9999 NCD 06/03 Q1015 WNW (290°) 10.4mph 6°C 3°C
14/01/19 03:20 EGSS 140320Z AUTO 29009KT 9999 NCD 06/03 Q1015 WNW (290°) 10.4mph 6°C 3°C
14/01/19 02:50 EGSS 140250Z AUTO 29010G20KT 9999 NCD 06/03 Q1015 WNW (290°) 11.5mph 23.0mph 6°C 3°C
14/01/19 01:50 EGSS 140150Z AUTO 30011KT 9999 FEW028 06/03 Q1014 WNW (300°) 12.7mph 6°C 3°C
14/01/19 01:20 EGSS 140120Z AUTO 30013G23KT 9999 NCD 07/03 Q1013 WNW (300°) 15.0mph 26.5mph 7°C 3°C
14/01/19 00:50 EGSS 140050Z AUTO 30013KT 9999 NCD 07/03 Q1013 WNW (300°) 15.0mph 7°C 3°C
14/01/19 00:20 EGSS 140020Z AUTO 30012KT 9999 NCD 07/03 Q1013 WNW (300°) 13.8mph 7°C 3°C
13/01/19 23:50 EGSS 132350Z AUTO 30012KT 9999 SCT030 07/03 Q1013 WNW (300°) 13.8mph 7°C 3°C
13/01/19 23:20 EGSS 132320Z AUTO 29013KT 9999 NCD 07/03 Q1013 WNW (290°) 15.0mph 7°C 3°C
13/01/19 22:50 EGSS 132250Z AUTO 30013KT 9999 NCD 07/03 Q1012 WNW (300°) 15.0mph 7°C 3°C
13/01/19 22:20 EGSS 132220Z AUTO 30012G22KT 9999 FEW044 08/03 Q1012 WNW (300°) 13.8mph 25.3mph 8°C 3°C
13/01/19 21:50 EGSS 132150Z AUTO 30011KT 9999 BKN038 08/03 Q1012 WNW (300°) 12.7mph 8°C 3°C
13/01/19 21:20 EGSS 132120Z AUTO 30013KT 9999 BKN046 08/03 Q1012 WNW (300°) 15.0mph 8°C 3°C
13/01/19 20:50 EGSS 132050Z AUTO 31014KT 9999 FEW035 SCT044 08/03 Q1012 NW (310°) 16.1mph 8°C 3°C
13/01/19 20:20 EGSS 132020Z AUTO 31013G24KT 9999 BKN036 09/04 Q1011 NW (310°) 15.0mph 27.6mph 9°C 4°C
13/01/19 19:50 EGSS 131950Z AUTO 32015G26KT 9999 -RA FEW028 BKN034 BKN049 08/05 Q1011 -RA NW (320°) 17.3mph 29.9mph 8°C 5°C
13/01/19 18:50 EGSS 131850Z 30014KT 9999 SCT045 10/05 Q1010 WNW (300°) 16.1mph 10°C 5°C
13/01/19 18:20 EGSS 131820Z AUTO 31018G28KT 280V350 9999 SCT034 BKN040 11/05 Q1010 NW (310°) 20.7mph 32.2mph 11°C 5°C
13/01/19 17:50 EGSS 131750Z AUTO 30011KT 9999 BKN035 OVC041 11/06 Q1010 WNW (300°) 12.7mph 11°C 6°C
13/01/19 17:20 EGSS 131720Z AUTO 29013G23KT 9999 BKN034 OVC046 11/07 Q1009 WNW (290°) 15.0mph 26.5mph 11°C 7°C
13/01/19 16:50 EGSS 131650Z AUTO 28014G24KT 9999 BKN036 BKN049 11/07 Q1009 W (280°) 16.1mph 27.6mph 11°C 7°C
13/01/19 16:20 EGSS 131620Z AUTO 28012G22KT 9999 BKN041 11/07 Q1009 W (280°) 13.8mph 25.3mph 11°C 7°C
13/01/19 15:50 EGSS 131550Z AUTO 28012KT 250V320 9999 SCT018 BKN037 BKN046 11/07 Q1009 W (280°) 13.8mph 11°C 7°C
13/01/19 15:20 EGSS 131520Z AUTO 28012KT 240V300 9999 BKN016 OVC022 10/08 Q1010 W (280°) 13.8mph 10°C 8°C
13/01/19 14:50 EGSS 131450Z AUTO 27013KT 9999 BKN016 OVC032 10/08 Q1009 W (270°) 15.0mph 10°C 8°C
13/01/19 14:20 EGSS 131420Z AUTO 27015KT 9999 BKN014 OVC030 10/08 Q1010 W (270°) 17.3mph 10°C 8°C
13/01/19 13:50 EGSS 131350Z AUTO 27014KT 9999 OVC015 10/07 Q1010 W (270°) 16.1mph 10°C 7°C
13/01/19 13:20 EGSS 131320Z AUTO 27015G25KT 9999 BKN016 10/07 Q1010 W (270°) 17.3mph 28.8mph 10°C 7°C
13/01/19 12:50 EGSS 131250Z AUTO 28016G26KT 9999 BKN017 10/07 Q1010 W (280°) 18.4mph 29.9mph 10°C 7°C
13/01/19 12:20 EGSS 131220Z AUTO 28014KT 250V310 9999 BKN018 10/07 Q1011 W (280°) 16.1mph 10°C 7°C
13/01/19 11:50 EGSS 131150Z AUTO 28012KT 9999 BKN019 10/07 Q1011 W (280°) 13.8mph 10°C 7°C
13/01/19 11:20 EGSS 131120Z AUTO 28014G24KT 9999 NCD 10/06 Q1012 W (280°) 16.1mph 27.6mph 10°C 6°C
13/01/19 10:50 EGSS 131050Z AUTO 27012KT 9999 FEW023 10/06 Q1012 W (270°) 13.8mph 10°C 6°C
13/01/19 10:20 EGSS 131020Z AUTO 28011KT 250V310 9999 FEW027 10/06 Q1012 W (280°) 12.7mph 10°C 6°C
13/01/19 09:50 EGSS 130950Z AUTO 27012KT 9999 NCD 10/06 Q1012 W (270°) 13.8mph 10°C 6°C
13/01/19 09:20 EGSS 130920Z AUTO 27012KT 9999 FEW026 10/06 Q1012 W (270°) 13.8mph 10°C 6°C
13/01/19 08:50 EGSS 130850Z AUTO 27013KT 9999 -RA SCT027/// //////TCU 10/07 Q1013 -RA W (270°) 15.0mph 10°C 7°C
13/01/19 08:20 EGSS 130820Z AUTO 27010KT 9999 NCD 10/07 Q1013 W (270°) 11.5mph 10°C 7°C
13/01/19 07:50 EGSS 130750Z AUTO 27010KT 240V300 9999 FEW022 10/07 Q1013 W (270°) 11.5mph 10°C 7°C
13/01/19 07:20 EGSS 130720Z AUTO 27011KT 9999 BKN020 10/07 Q1013 W (270°) 12.7mph 10°C 7°C
13/01/19 06:50 EGSS 130650Z AUTO 28011KT 9999 SCT018 BKN027 10/07 Q1013 W (280°) 12.7mph 10°C 7°C
13/01/19 06:20 EGSS 130620Z AUTO 28010KT 250V310 9999 BKN017 OVC023 10/07 Q1014 W (280°) 11.5mph 10°C 7°C
13/01/19 05:50 EGSS 130550Z AUTO 27010KT 9999 BKN017 10/07 Q1013 W (270°) 11.5mph 10°C 7°C
13/01/19 05:20 EGSS 130520Z AUTO 27010KT 9999 BKN017 10/07 Q1014 W (270°) 11.5mph 10°C 7°C
13/01/19 04:50 EGSS 130450Z AUTO 27010KT 9999 BKN017 10/07 Q1014 W (270°) 11.5mph 10°C 7°C
13/01/19 04:20 EGSS 130420Z 27011KT 9999 OVC017 10/07 Q1015 W (270°) 12.7mph 10°C 7°C
13/01/19 03:50 EGSS 130350Z AUTO 27009KT 9999 BKN020 10/07 Q1015 W (270°) 10.4mph 10°C 7°C
13/01/19 03:20 EGSS 130320Z AUTO 28009KT 9999 BKN020 10/07 Q1015 W (280°) 10.4mph 10°C 7°C
13/01/19 02:50 EGSS 130250Z AUTO 28009KT 9999 BKN020 10/07 Q1016 W (280°) 10.4mph 10°C 7°C
13/01/19 02:20 EGSS 130220Z AUTO 28008KT 9999 BKN020 10/07 Q1016 W (280°) 9.2mph 10°C 7°C
13/01/19 01:50 EGSS 130150Z AUTO 28009KT 9999 BKN022 10/07 Q1016 W (280°) 10.4mph 10°C 7°C